createdAt,value
2024-05-09T00:00:46.931Z,11.20
2024-05-09T00:03:15.413Z,13.77
2024-05-09T00:05:44.758Z,14.30
2024-05-09T00:08:13.496Z,14.27
2024-05-09T00:10:41.960Z,13.82
2024-05-09T00:13:11.373Z,13.70
2024-05-09T00:15:40.082Z,11.63
2024-05-09T00:18:08.998Z,10.73
2024-05-09T00:20:40.482Z,11.60
2024-05-09T00:23:14.057Z,11.05
2024-05-09T00:25:46.152Z,10.45
2024-05-09T00:28:14.800Z,12.03
2024-05-09T00:30:43.623Z,11.57
2024-05-09T00:33:12.171Z,13.65
2024-05-09T00:35:41.797Z,9.52
2024-05-09T00:38:11.538Z,11.07
2024-05-09T00:40:42.511Z,11.40
2024-05-09T00:43:14.472Z,10.25
2024-05-09T00:45:44.473Z,10.95
2024-05-09T00:48:17.554Z,10.25
2024-05-09T00:50:48.735Z,11.57
2024-05-09T00:53:18.799Z,10.80
2024-05-09T00:55:47.956Z,9.48
2024-05-09T00:58:18.587Z,13.40
2024-05-09T01:00:47.415Z,10.70
2024-05-09T01:03:16.160Z,9.82
2024-05-09T01:05:45.213Z,11.50
2024-05-09T01:08:14.030Z,11.55
2024-05-09T01:10:45.026Z,11.73
2024-05-09T01:13:14.677Z,10.52
2024-05-09T01:15:43.812Z,9.45
2024-05-09T01:18:13.564Z,10.27
2024-05-09T01:20:44.765Z,9.75
2024-05-09T01:23:16.183Z,9.73
2024-05-09T01:25:47.024Z,10.02
2024-05-09T01:28:16.619Z,9.10
2024-05-09T01:30:45.528Z,8.50
2024-05-09T01:33:14.362Z,11.90
2024-05-09T01:35:43.479Z,8.48
2024-05-09T01:38:17.585Z,12.40
2024-05-09T01:40:47.456Z,9.85
2024-05-09T01:43:17.335Z,10.57
2024-05-09T01:45:46.383Z,11.40
2024-05-09T01:48:14.900Z,10.63
2024-05-09T01:50:43.793Z,12.32
2024-05-09T01:53:14.778Z,9.48
2024-05-09T01:55:44.561Z,9.47
2024-05-09T01:58:13.857Z,9.23
2024-05-09T02:00:43.393Z,11.23
2024-05-09T02:03:16.120Z,15.27
2024-05-09T02:05:48.312Z,25.50
2024-05-09T02:08:19.343Z,27.23
2024-05-09T02:10:50.212Z,21.40
2024-05-09T02:13:20.175Z,14.93
2024-05-09T02:15:52.658Z,17.08
2024-05-09T02:18:24.322Z,21.90
2024-05-09T02:20:52.738Z,16.57
2024-05-09T02:23:21.253Z,13.32
2024-05-09T02:25:50.469Z,10.73
2024-05-09T02:28:21.306Z,13.80
2024-05-09T02:30:49.842Z,11.82
2024-05-09T02:33:18.825Z,12.43
2024-05-09T02:35:47.240Z,13.48
2024-05-09T02:38:15.740Z,12.90
2024-05-09T02:40:44.243Z,12.57
2024-05-09T02:43:13.303Z,9.55
2024-05-09T02:45:42.419Z,12.17
2024-05-09T02:48:13.212Z,13.50
2024-05-09T02:50:44.364Z,10.43
2024-05-09T02:53:14.477Z,11.48
2024-05-09T02:55:43.489Z,12.07
2024-05-09T02:58:12.430Z,10.10
2024-05-09T03:00:42.586Z,11.00
2024-05-09T03:03:14.281Z,11.38
2024-05-09T03:05:45.120Z,10.00
2024-05-09T03:08:14.004Z,8.43
2024-05-09T03:10:42.981Z,8.77
2024-05-09T03:13:15.199Z,10.52
2024-05-09T03:15:45.952Z,8.93
2024-05-09T03:18:15.373Z,9.77
2024-05-09T03:20:44.693Z,9.63
2024-05-09T03:23:13.609Z,11.13
2024-05-09T03:25:42.098Z,9.30
2024-05-09T03:28:11.571Z,10.02
2024-05-09T03:31:05.166Z,9.38
2024-05-09T03:33:33.757Z,7.88
2024-05-09T03:36:05.598Z,7.87
2024-05-09T03:38:40.013Z,9.15
2024-05-09T03:41:09.419Z,12.45
2024-05-09T03:43:37.754Z,9.18
2024-05-09T03:46:05.961Z,9.63
2024-05-09T03:48:37.302Z,13.20
2024-05-09T03:51:06.045Z,9.40
2024-05-09T03:53:34.733Z,11.10
2024-05-09T03:56:03.994Z,9.68
2024-05-09T03:58:33.310Z,8.45
2024-05-09T04:01:01.877Z,9.20
2024-05-09T04:03:30.705Z,8.55
2024-05-09T04:05:59.146Z,8.60
2024-05-09T04:08:27.666Z,9.45
2024-05-09T04:10:56.603Z,9.63
2024-05-09T04:13:25.158Z,10.90
2024-05-09T04:15:53.383Z,10.80
2024-05-09T04:18:21.912Z,10.27
2024-05-09T04:20:50.462Z,9.80
2024-05-09T04:23:19.112Z,9.10
2024-05-09T04:25:47.709Z,8.83
2024-05-09T04:28:16.713Z,12.18
2024-05-09T04:30:45.140Z,8.68
2024-05-09T04:33:15.485Z,12.73
2024-05-09T04:35:44.712Z,12.25
2024-05-09T04:38:14.931Z,7.80
2024-05-09T04:40:44.165Z,7.38
2024-05-09T04:43:19.117Z,8.55
2024-05-09T04:45:48.009Z,6.93
2024-05-09T04:48:17.104Z,7.10
2024-05-09T04:50:45.974Z,8.67
2024-05-09T04:53:17.935Z,9.07
2024-05-09T04:55:46.707Z,10.82
2024-05-09T04:58:15.190Z,10.02
2024-05-09T05:00:44.605Z,9.70
2024-05-09T05:03:15.471Z,10.90
2024-05-09T05:05:45.909Z,9.32
2024-05-09T05:08:16.866Z,8.48
2024-05-09T05:10:48.255Z,7.18
2024-05-09T05:13:23.863Z,6.68
2024-05-09T05:15:56.841Z,7.97
2024-05-09T05:18:28.309Z,8.25
2024-05-09T05:20:57.627Z,7.55
2024-05-09T05:23:26.193Z,8.60
2024-05-09T05:25:56.112Z,9.02
2024-05-09T05:28:24.635Z,7.63
2024-05-09T05:30:53.174Z,8.52
2024-05-09T05:33:23.243Z,7.55
2024-05-09T05:35:52.356Z,8.10
2024-05-09T05:38:24.837Z,10.10
2024-05-09T05:40:56.078Z,9.63
2024-05-09T05:43:24.684Z,9.13
2024-05-09T05:45:54.919Z,6.82
2024-05-09T05:48:23.676Z,6.93
2024-05-09T05:50:52.335Z,8.05
2024-05-09T05:53:20.829Z,9.47
2024-05-09T05:55:49.853Z,10.68
2024-05-09T05:58:20.420Z,9.65
2024-05-09T06:00:48.901Z,11.02
2024-05-09T06:03:17.732Z,9.50
2024-05-09T06:05:47.092Z,10.40
2024-05-09T06:08:15.891Z,10.30
2024-05-09T06:10:44.519Z,9.18
2024-05-09T06:13:14.323Z,10.20
2024-05-09T06:15:44.004Z,8.45
2024-05-09T06:18:14.352Z,8.20
2024-05-09T06:20:44.239Z,8.02
2024-05-09T06:23:48.370Z,10.02
2024-05-09T06:26:17.709Z,7.95
2024-05-09T06:28:46.206Z,6.55
2024-05-09T06:31:14.856Z,8.03
2024-05-09T06:33:43.558Z,8.60
2024-05-09T06:36:13.543Z,9.57
2024-05-09T06:38:42.532Z,8.57
2024-05-09T06:41:11.231Z,7.60
2024-05-09T06:43:39.634Z,10.27
2024-05-09T06:46:11.173Z,8.23
2024-05-09T06:48:39.946Z,8.88
2024-05-09T06:51:08.493Z,7.70
2024-05-09T06:53:39.981Z,8.80
2024-05-09T06:56:09.346Z,10.07
2024-05-09T06:58:37.739Z,7.75
2024-05-09T07:01:07.109Z,7.63
2024-05-09T07:03:35.702Z,7.88
2024-05-09T07:06:04.450Z,8.40
2024-05-09T07:08:33.414Z,7.17
2024-05-09T07:11:02.061Z,11.25
2024-05-09T07:13:30.578Z,8.13
2024-05-09T07:15:59.020Z,9.05
2024-05-09T07:18:27.544Z,8.23
2024-05-09T07:20:55.990Z,7.00
2024-05-09T07:23:27.632Z,10.43
2024-05-09T07:25:58.118Z,8.13
2024-05-09T07:28:26.506Z,7.82
2024-05-09T07:30:54.796Z,6.00
2024-05-09T07:33:24.411Z,7.97
2024-05-09T07:35:53.404Z,5.45
2024-05-09T07:38:22.286Z,5.22
2024-05-09T07:40:50.891Z,6.60
2024-05-09T07:43:19.560Z,5.82
2024-05-09T07:45:53.024Z,6.40
2024-05-09T07:52:39.357Z,6.45
2024-05-09T07:53:49.965Z,6.43
2024-05-09T07:56:22.818Z,6.97
2024-05-09T07:58:56.624Z,5.83
2024-05-09T08:01:27.028Z,6.97
2024-05-09T08:03:56.578Z,8.65
2024-05-09T08:06:26.095Z,5.97
2024-05-09T08:08:54.881Z,8.75
2024-05-09T08:11:24.318Z,5.93
2024-05-09T08:13:52.883Z,6.40
2024-05-09T08:16:22.091Z,6.45
2024-05-09T08:18:50.865Z,7.47
2024-05-09T08:21:22.594Z,5.38
2024-05-09T08:23:51.659Z,11.60
2024-05-09T08:26:20.244Z,5.72
2024-05-09T08:28:48.708Z,5.40
2024-05-09T08:31:17.113Z,8.48
2024-05-09T08:33:47.519Z,6.10
2024-05-09T08:36:17.537Z,6.03
2024-05-09T08:38:45.978Z,8.45
2024-05-09T08:41:18.037Z,6.53
2024-05-09T08:44:11.405Z,5.28
2024-05-09T08:46:41.009Z,5.97
2024-05-09T08:49:10.388Z,7.07
2024-05-09T08:51:38.674Z,5.50
2024-05-09T08:54:07.185Z,6.60
2024-05-09T08:56:38.985Z,7.53
2024-05-09T08:59:09.349Z,7.82
2024-05-09T09:01:42.013Z,4.17
2024-05-09T09:04:11.864Z,4.35
2024-05-09T09:06:42.007Z,6.38
2024-05-09T09:09:12.196Z,10.35
2024-05-09T09:11:40.655Z,5.43
2024-05-09T09:14:09.371Z,6.90
2024-05-09T09:16:37.929Z,9.00
2024-05-09T09:19:06.463Z,5.07
2024-05-09T09:21:36.033Z,5.93
2024-05-09T09:24:05.356Z,5.45
2024-05-09T09:26:34.534Z,4.70
2024-05-09T09:29:03.007Z,5.53
2024-05-09T09:31:31.661Z,6.13
2024-05-09T09:34:09.549Z,5.43
2024-05-09T09:36:42.093Z,4.90
2024-05-09T09:39:11.115Z,5.60
2024-05-09T09:41:40.461Z,4.32
2024-05-09T09:44:10.638Z,8.55
2024-05-09T09:46:40.170Z,5.22
2024-05-09T09:49:10.054Z,4.80
2024-05-09T09:51:44.026Z,5.30
2024-05-09T09:54:13.884Z,8.88
2024-05-09T09:56:42.975Z,6.80
2024-05-09T09:59:16.238Z,6.57
2024-05-09T10:01:46.566Z,6.75
2024-05-09T10:04:17.255Z,4.90
2024-05-09T10:06:57.898Z,6.70
2024-05-09T10:09:26.920Z,6.70
2024-05-09T10:12:00.138Z,6.40
2024-05-09T10:14:31.241Z,9.18
2024-05-09T10:17:06.312Z,5.50
2024-05-09T10:19:35.680Z,5.65
2024-05-09T10:22:04.724Z,8.15
2024-05-09T10:24:52.657Z,5.35
2024-05-09T10:27:28.458Z,5.78
2024-05-09T10:30:11.594Z,5.77
2024-05-09T10:32:45.442Z,5.35
2024-05-09T10:35:19.537Z,6.25
2024-05-09T10:37:48.765Z,6.18
2024-05-09T10:40:26.032Z,5.30
2024-05-09T10:43:03.326Z,4.83
2024-05-09T10:45:35.969Z,4.22
2024-05-09T10:48:04.918Z,5.45
2024-05-09T10:50:34.552Z,5.90
2024-05-09T10:53:03.584Z,7.15
2024-05-09T10:55:32.109Z,5.80
2024-05-09T10:58:00.725Z,7.55
2024-05-09T11:00:36.023Z,5.95
2024-05-09T11:03:05.693Z,4.65
2024-05-09T11:05:35.239Z,5.95
2024-05-09T11:08:04.160Z,5.43
2024-05-09T11:10:34.406Z,8.10
2024-05-09T11:13:28.489Z,6.82
2024-05-09T11:15:57.239Z,6.93
2024-05-09T11:18:30.868Z,5.22
2024-05-09T11:21:02.384Z,5.20
2024-05-09T11:23:31.590Z,5.15
2024-05-09T11:26:00.002Z,6.75
2024-05-09T11:28:31.371Z,6.13
2024-05-09T11:31:10.489Z,7.28
2024-05-09T11:33:40.209Z,6.57
2024-05-09T11:36:09.749Z,4.63
2024-05-09T11:38:38.611Z,5.45
2024-05-09T11:41:07.290Z,6.45
2024-05-09T11:43:35.854Z,6.43
2024-05-09T11:46:04.869Z,7.00
2024-05-09T11:48:33.506Z,6.47
2024-05-09T11:51:02.040Z,8.35
2024-05-09T11:53:30.503Z,6.85
2024-05-09T11:55:58.823Z,9.20
2024-05-09T11:58:28.846Z,6.40
2024-05-09T12:00:57.527Z,5.95
2024-05-09T12:03:26.415Z,6.20
2024-05-09T12:05:55.134Z,7.40
2024-05-09T12:08:24.460Z,4.95
2024-05-09T12:10:53.515Z,5.70
2024-05-09T12:13:22.292Z,7.50
2024-05-09T12:17:06.733Z,6.07
2024-05-09T12:19:35.672Z,6.88
2024-05-09T12:22:05.560Z,4.85
2024-05-09T12:24:34.219Z,8.93
2024-05-09T12:27:02.579Z,6.65
2024-05-09T12:29:30.965Z,5.25
2024-05-09T12:31:59.395Z,4.45
2024-05-09T12:34:28.348Z,6.88
2024-05-09T12:36:57.011Z,7.77
2024-05-09T12:39:30.947Z,6.43
2024-05-09T12:41:59.584Z,6.65
2024-05-09T12:44:30.465Z,6.07
2024-05-09T12:46:58.901Z,10.98
2024-05-09T12:49:27.607Z,9.07
2024-05-09T12:51:56.152Z,5.25
2024-05-09T12:54:24.547Z,6.30
2024-05-09T12:56:52.932Z,9.30
2024-05-09T12:59:21.648Z,6.32
2024-05-09T13:01:50.210Z,5.53
2024-05-09T13:04:19.675Z,7.13
2024-05-09T13:06:49.393Z,5.18
2024-05-09T13:09:18.099Z,5.30
2024-05-09T13:11:47.078Z,6.82
2024-05-09T13:14:15.456Z,8.00
2024-05-09T13:16:44.029Z,7.68
2024-05-09T13:19:12.684Z,5.80
2024-05-09T13:21:41.153Z,5.82
2024-05-09T13:24:10.026Z,5.18
2024-05-09T13:26:38.483Z,5.50
2024-05-09T13:29:07.184Z,4.32
2024-05-09T13:31:36.209Z,6.15
2024-05-09T13:34:04.857Z,5.13
2024-05-09T13:36:33.975Z,8.40
2024-05-09T13:39:02.580Z,5.33
2024-05-09T13:41:31.089Z,4.35
2024-05-09T13:43:59.903Z,6.82
2024-05-09T13:46:28.734Z,4.90
2024-05-09T13:48:57.977Z,5.40
2024-05-09T13:51:26.562Z,5.37
2024-05-09T13:53:59.551Z,6.05
2024-05-09T13:56:28.114Z,5.03
2024-05-09T13:58:56.489Z,5.15
2024-05-09T14:01:26.013Z,4.95
2024-05-09T14:03:54.896Z,6.27
2024-05-09T14:06:33.402Z,7.25
2024-05-09T14:09:04.919Z,4.90
2024-05-09T14:11:33.522Z,7.95
2024-05-09T14:14:02.748Z,4.80
2024-05-09T14:16:31.882Z,5.03
2024-05-09T14:19:00.923Z,4.97
2024-05-09T14:21:29.485Z,4.47
2024-05-09T14:23:58.607Z,5.05
2024-05-09T14:26:27.263Z,5.32
2024-05-09T14:28:55.931Z,4.83
2024-05-09T14:31:24.560Z,5.75
2024-05-09T14:33:53.265Z,4.60
2024-05-09T14:36:22.073Z,4.82
2024-05-09T14:38:50.516Z,4.50
2024-05-09T14:41:18.966Z,5.13
2024-05-09T14:43:47.890Z,6.03
2024-05-09T14:46:17.000Z,4.85
2024-05-09T14:48:46.294Z,5.35
2024-05-09T14:51:16.883Z,6.80
2024-05-09T14:53:45.336Z,5.93
2024-05-09T14:56:15.351Z,4.80
2024-05-09T14:58:44.230Z,5.00
2024-05-09T15:01:12.807Z,4.88
2024-05-09T15:03:41.317Z,4.57
2024-05-09T15:06:09.711Z,5.40
2024-05-09T15:08:38.281Z,5.25
2024-05-09T15:11:06.873Z,5.65
2024-05-09T15:13:35.476Z,5.07
2024-05-09T15:16:04.961Z,5.43
2024-05-09T15:18:33.628Z,4.90
2024-05-09T15:21:02.427Z,5.18
2024-05-09T15:23:31.053Z,6.00
2024-05-09T15:25:59.636Z,6.80
2024-05-09T15:28:28.125Z,6.35
2024-05-09T15:30:56.913Z,5.57
2024-05-09T15:33:25.803Z,4.25
2024-05-09T15:35:54.670Z,4.60
2024-05-09T15:38:23.084Z,6.18
2024-05-09T15:40:51.702Z,5.07
2024-05-09T15:43:20.816Z,4.80
2024-05-09T15:45:49.209Z,5.72
2024-05-09T15:48:18.376Z,5.20
2024-05-09T15:50:46.962Z,7.10
2024-05-09T15:53:15.525Z,7.50
2024-05-09T15:55:44.175Z,4.83
2024-05-09T15:58:13.376Z,5.20
2024-05-09T16:00:45.047Z,6.18
2024-05-09T16:03:15.307Z,5.32
2024-05-09T16:05:46.349Z,6.20
2024-05-09T16:08:16.714Z,5.30
2024-05-09T16:10:47.364Z,5.70
2024-05-09T16:13:17.810Z,4.70
2024-05-09T16:15:46.875Z,4.78
2024-05-09T16:18:15.849Z,6.35
2024-05-09T16:20:46.346Z,5.50
2024-05-09T16:23:17.595Z,5.10
2024-05-09T16:25:48.546Z,6.00
2024-05-09T16:28:19.386Z,5.07
2024-05-09T16:30:49.575Z,6.93
2024-05-09T16:33:26.203Z,7.40
2024-05-09T16:35:55.352Z,5.93
2024-05-09T16:38:24.141Z,5.30
2024-05-09T16:40:52.883Z,5.60
2024-05-09T16:43:22.739Z,9.10
2024-05-09T16:45:51.635Z,6.70
2024-05-09T16:48:20.295Z,6.85
2024-05-09T16:50:49.537Z,4.40
2024-05-09T16:53:19.845Z,4.82
2024-05-09T16:55:48.431Z,5.72
2024-05-09T16:58:16.987Z,8.43
2024-05-09T17:00:45.533Z,9.05
2024-05-09T17:03:15.714Z,5.38
2024-05-09T17:05:48.701Z,8.05
2024-05-09T17:08:20.400Z,10.63
2024-05-09T17:10:49.658Z,7.47
2024-05-09T17:13:19.320Z,6.07
2024-05-09T17:15:50.219Z,6.70
2024-05-09T17:18:19.249Z,7.68
2024-05-09T17:20:49.336Z,6.25
2024-05-09T17:23:17.653Z,7.97
2024-05-09T17:25:46.920Z,5.43
2024-05-09T17:28:16.086Z,7.75
2024-05-09T17:30:44.568Z,6.57
2024-05-09T17:33:13.736Z,6.35
2024-05-09T17:35:42.488Z,8.17
2024-05-09T17:38:10.987Z,8.25
2024-05-09T17:40:40.114Z,7.13
2024-05-09T17:43:10.554Z,7.80
2024-05-09T17:45:41.263Z,7.53
2024-05-09T17:48:12.243Z,7.67
2024-05-09T17:50:42.507Z,7.10
2024-05-09T17:53:11.410Z,8.73
2024-05-09T17:55:40.705Z,8.82
2024-05-09T17:58:10.492Z,7.63
2024-05-09T18:00:41.935Z,8.73
2024-05-09T18:03:12.644Z,6.57
2024-05-09T18:05:43.986Z,8.10
2024-05-09T18:08:13.771Z,10.88
2024-05-09T18:10:42.967Z,8.55
2024-05-09T18:13:13.233Z,9.67
2024-05-09T18:15:42.142Z,6.95
2024-05-09T18:18:11.826Z,10.60
2024-05-09T18:20:44.566Z,7.10
2024-05-09T18:23:16.918Z,7.82
2024-05-09T18:25:47.052Z,7.47
2024-05-09T18:28:18.389Z,8.25
2024-05-09T18:30:50.304Z,8.35
2024-05-09T18:33:19.210Z,9.40
2024-05-09T18:35:47.680Z,6.88
2024-05-09T18:38:16.468Z,4.90
2024-05-09T18:40:48.209Z,7.38
2024-05-09T18:43:18.106Z,8.60
2024-05-09T18:45:47.758Z,6.82
2024-05-09T18:48:16.695Z,7.10
2024-05-09T18:50:45.403Z,9.23
2024-05-09T18:53:14.644Z,7.53
2024-05-09T18:55:43.269Z,10.20
2024-05-09T18:58:13.032Z,6.72
2024-05-09T19:00:45.204Z,7.40
2024-05-09T19:03:16.131Z,11.97
2024-05-09T19:05:46.196Z,7.13
2024-05-09T19:08:15.826Z,5.90
2024-05-09T19:10:46.374Z,5.70
2024-05-09T19:13:25.484Z,7.00
2024-05-09T19:15:54.490Z,9.17
2024-05-09T19:18:23.026Z,7.05
2024-05-09T19:20:51.809Z,6.75
2024-05-09T19:23:20.542Z,7.47
2024-05-09T19:25:49.204Z,6.25
2024-05-09T19:28:17.861Z,7.37
2024-05-09T19:30:47.020Z,6.72
2024-05-09T19:33:15.831Z,7.10
2024-05-09T19:35:44.542Z,5.82
2024-05-09T19:38:13.225Z,6.32
2024-05-09T19:40:41.846Z,6.50
2024-05-09T19:43:11.391Z,6.93
2024-05-09T19:45:40.255Z,6.30
2024-05-09T19:48:09.074Z,5.15
2024-05-09T19:50:43.060Z,8.40
2024-05-09T19:53:14.175Z,6.17
2024-05-09T19:55:43.561Z,6.97
2024-05-09T19:58:12.972Z,6.45
2024-05-09T20:00:43.678Z,8.88
2024-05-09T20:03:15.313Z,7.80
2024-05-09T20:05:47.772Z,10.93
2024-05-09T20:08:17.175Z,7.85
2024-05-09T20:10:45.619Z,6.20
2024-05-09T20:13:14.360Z,11.15
2024-05-09T20:15:43.357Z,5.93
2024-05-09T20:18:12.539Z,20.03
2024-05-09T20:20:43.093Z,7.63
2024-05-09T20:23:14.442Z,7.65
2024-05-09T20:25:43.054Z,6.25
2024-05-09T20:28:12.368Z,4.57
2024-05-09T20:30:41.128Z,6.20
2024-05-09T20:33:12.197Z,5.95
2024-05-09T20:35:41.802Z,6.20
2024-05-09T20:38:10.305Z,6.82
2024-05-09T20:40:41.765Z,5.57
2024-05-09T20:43:10.840Z,7.30
2024-05-09T20:45:40.587Z,7.50
2024-05-09T20:48:09.949Z,6.82
2024-05-09T20:50:41.437Z,7.40
2024-05-09T20:53:13.916Z,7.22
2024-05-09T20:55:44.621Z,9.50
2024-05-09T20:58:14.151Z,7.22
2024-05-09T21:00:45.375Z,7.45
2024-05-09T21:03:17.326Z,9.07
2024-05-09T21:05:47.326Z,5.50
2024-05-09T21:08:16.549Z,7.80
2024-05-09T21:10:45.258Z,7.25
2024-05-09T21:13:14.652Z,6.55
2024-05-09T21:15:43.123Z,6.45
2024-05-09T21:18:11.772Z,9.27
2024-05-09T21:20:40.296Z,9.57
2024-05-09T21:23:08.842Z,7.78
2024-05-09T21:25:37.246Z,8.80
2024-05-09T21:28:08.588Z,12.63
2024-05-09T21:30:41.900Z,11.30
2024-05-09T21:33:14.110Z,8.83
2024-05-09T21:35:44.849Z,9.10
2024-05-09T21:38:14.806Z,8.30
2024-05-09T21:40:44.458Z,13.77
2024-05-09T21:43:14.591Z,10.40
2024-05-09T21:45:43.439Z,11.83
2024-05-09T21:48:13.810Z,11.77
2024-05-09T21:50:42.743Z,11.77
2024-05-09T21:53:13.288Z,13.15
2024-05-09T21:55:45.281Z,11.55
2024-05-09T21:58:16.686Z,10.90
2024-05-09T22:00:46.689Z,12.43
2024-05-09T22:03:15.544Z,11.23
2024-05-09T22:05:45.285Z,12.98
2024-05-09T22:08:14.163Z,15.70
2024-05-09T22:10:43.045Z,11.33
2024-05-09T22:13:11.680Z,13.93
2024-05-09T22:15:40.782Z,14.52
2024-05-09T22:18:11.056Z,12.25
2024-05-09T22:20:45.511Z,11.60
2024-05-09T22:23:15.994Z,12.30
2024-05-09T22:25:44.716Z,10.20
2024-05-09T22:28:16.700Z,11.30
2024-05-09T22:30:47.446Z,15.10
2024-05-09T22:33:16.796Z,17.38
2024-05-09T22:35:45.538Z,11.00
2024-05-09T22:38:14.222Z,12.55
2024-05-09T22:40:47.915Z,10.77
2024-05-09T22:43:23.808Z,12.93
2024-05-09T22:45:57.127Z,11.10
2024-05-09T22:48:26.658Z,12.90
2024-05-09T22:50:55.611Z,11.63
2024-05-09T22:53:25.314Z,10.25
2024-05-09T22:55:54.423Z,9.75
2024-05-09T22:58:24.058Z,7.43
2024-05-09T23:00:53.052Z,9.17
2024-05-09T23:03:22.837Z,7.95
2024-05-09T23:05:51.419Z,7.78
2024-05-09T23:08:20.040Z,8.63
2024-05-09T23:10:48.267Z,9.68
2024-05-09T23:13:16.978Z,10.07
2024-05-09T23:15:45.336Z,10.35
2024-05-09T23:18:13.901Z,8.27
2024-05-09T23:20:42.272Z,8.73
2024-05-09T23:23:11.866Z,8.93
2024-05-09T23:25:42.108Z,8.57
2024-05-09T23:28:11.785Z,9.30
2024-05-09T23:30:41.408Z,9.35
2024-05-09T23:33:14.873Z,8.48
2024-05-09T23:35:44.601Z,7.78
2024-05-09T23:38:13.647Z,8.73
2024-05-09T23:40:43.046Z,9.73
2024-05-09T23:43:13.047Z,8.80
2024-05-09T23:45:42.666Z,10.57
2024-05-09T23:48:11.868Z,10.95
2024-05-09T23:50:41.013Z,9.93
2024-05-09T23:53:35.428Z,8.02
2024-05-09T23:56:03.944Z,7.20
2024-05-09T23:58:32.306Z,8.65
